Terminal Aerodrome Forecast
Issued by NWS Norman, OK

Home | Current Version | Previous Version | Text Only | Print | Product List | Glossary On
Versions: 1 2 3 4 5 6 7 8 9 10 11 12 13
000
FTUS44 KOUN 291123
TAFSPS
TAF
KSPS 291123Z 2912/3012 36022G32KT P6SM VCTS OVC025CB
      TEMPO 2912/2916 3SM TSRA BR OVC012CB
     FM291800 32017G24KT 5SM BR OVC015
     FM300000 29015G23KT P6SM OVC025
     FM300500 26011KT 4SM BR OVC015 PROB30 3005/3009 3SM -DZ BR
      OVC008=

USA.gov is the U.S. government's official web portal to all federal, state and local government web resources and services.